Time;durP1;ratioP1;P1;durP2;ratioP2;P2;SDS_P1;SDS_P2;PMS_P1;PMS_P2;Temp;Humidity;BMP_temperature;BMP_pressure;BME280_temperature;BME280_humidity;BME280_pressure;Samples;Min_cycle;Max_cycle;Signal;HPM_P1;HPM_P2
2022/04/25 00:00:30;;;;;;;8.27;4.50;;;10.50;99.90;;;;;;5052625;28;20607;-81
2022/04/25 00:02:57;;;;;;;6.23;4.23;;;10.40;99.90;;;;;;5052617;28;20268;-81
2022/04/25 00:05:24;;;;;;;10.90;5.10;;;10.40;99.90;;;;;;5052870;28;20217;-82
2022/04/25 00:07:51;;;;;;;6.50;5.00;;;10.40;99.90;;;;;;5052328;28;20210;-82
2022/04/25 00:10:17;;;;;;;10.77;4.93;;;10.30;99.90;;;;;;5052891;28;20206;-81
2022/04/25 00:12:46;;;;;;;5.60;4.90;;;10.20;99.90;;;;;;5052635;28;20203;-81
2022/04/25 00:15:12;;;;;;;8.50;4.80;;;10.20;99.90;;;;;;5052320;28;20666;-81
2022/04/25 00:17:39;;;;;;;12.00;5.17;;;10.20;99.90;;;;;;5052038;28;20214;-82
2022/04/25 00:20:08;;;;;;;11.07;5.57;;;10.20;99.90;;;;;;5052685;28;20678;-82
2022/04/25 00:22:35;;;;;;;7.50;5.43;;;10.10;99.90;;;;;;5052320;28;20203;-82
2022/04/25 00:25:02;;;;;;;8.17;5.43;;;10.10;99.90;;;;;;5054219;28;20653;-82
2022/04/25 00:27:29;;;;;;;11.13;5.67;;;10.10;99.90;;;;;;5056504;28;20207;-83
2022/04/25 00:29:58;;;;;;;6.33;5.50;;;10.00;99.90;;;;;;5056322;28;20232;-82
2022/04/25 00:32:25;;;;;;;9.47;6.20;;;9.90;99.90;;;;;;5055995;28;20202;-82
2022/04/25 00:34:52;;;;;;;7.70;5.87;;;9.90;99.90;;;;;;5056307;28;20576;-81
2022/04/25 00:37:18;;;;;;;9.67;5.73;;;9.90;99.90;;;;;;5056216;28;20206;-83
2022/04/25 00:39:45;;;;;;;8.63;5.50;;;9.90;99.90;;;;;;5056517;28;20206;-83
2022/04/25 00:42:12;;;;;;;12.67;5.70;;;9.80;99.90;;;;;;5056584;28;20207;-82
2022/04/25 00:44:39;;;;;;;18.83;6.63;;;9.80;99.90;;;;;;5056534;28;20229;-82
2022/04/25 00:47:09;;;;;;;8.63;6.07;;;9.70;99.90;;;;;;5056052;28;20199;-82
2022/04/25 00:49:36;;;;;;;8.37;5.53;;;9.80;99.90;;;;;;5056013;28;20568;-82
2022/04/25 00:52:03;;;;;;;10.67;5.57;;;9.70;99.90;;;;;;5055950;28;20225;-82
2022/04/25 00:54:32;;;;;;;10.27;6.40;;;9.80;99.90;;;;;;5055897;28;20238;-82
2022/04/25 00:56:59;;;;;;;11.67;6.30;;;9.70;99.90;;;;;;5055747;28;20207;-82
2022/04/25 00:59:26;;;;;;;13.80;6.57;;;9.70;99.90;;;;;;5055774;28;20230;-82
2022/04/25 01:01:53;;;;;;;8.50;6.40;;;9.70;99.90;;;;;;5055753;28;20254;-82
2022/04/25 01:04:22;;;;;;;9.17;6.23;;;9.70;99.90;;;;;;5055764;28;20210;-81
2022/04/25 01:06:49;;;;;;;9.00;5.97;;;9.60;99.90;;;;;;5055483;28;20221;-83
2022/04/25 01:09:15;;;;;;;7.85;6.53;;;9.60;99.90;;;;;;5055317;28;20422;-81
2022/04/25 01:11:42;;;;;;;14.87;7.23;;;9.50;99.90;;;;;;5055591;28;20206;-81
2022/04/25 01:14:13;;;;;;;12.07;7.43;;;9.40;99.90;;;;;;5055576;28;20230;-82
2022/04/25 01:16:40;;;;;;;10.07;7.23;;;9.50;99.90;;;;;;5055408;28;20562;-81
2022/04/25 01:19:07;;;;;;;13.27;6.87;;;9.50;99.90;;;;;;5055321;28;20205;-81
2022/04/25 01:21:41;;;;;;;12.90;6.60;;;9.50;99.90;;;;;;5055954;28;20198;-82
2022/04/25 01:29:39;;;;;;;13.77;8.07;;;9.50;99.90;;;;;;5054509;28;20424;-82
2022/04/25 01:32:07;;;;;;;7.83;6.93;;;9.40;99.90;;;;;;5055699;28;20447;-83
2022/04/25 01:34:36;;;;;;;9.20;7.80;;;9.30;99.90;;;;;;5055200;28;20235;-81
2022/04/25 01:37:07;;;;;;;12.23;8.27;;;9.20;99.90;;;;;;5054364;28;20199;-80
2022/04/25 01:39:40;;;;;;;10.10;8.13;;;9.10;99.90;;;;;;5055502;28;20202;-81
2022/04/25 01:42:08;;;;;;;9.73;8.10;;;9.10;99.90;;;;;;5054672;28;20202;-81
2022/04/25 01:44:36;;;;;;;13.13;8.10;;;9.10;99.90;;;;;;5055034;28;20203;-80
2022/04/25 01:47:03;;;;;;;9.97;8.93;;;9.10;99.90;;;;;;5055081;28;20680;-82
2022/04/25 01:49:30;;;;;;;12.83;8.60;;;9.10;99.90;;;;;;5054699;28;20661;-82
2022/04/25 01:51:57;;;;;;;12.90;8.17;;;9.00;99.90;;;;;;5054866;28;20214;-78
2022/04/25 01:54:27;;;;;;;13.47;7.97;;;9.00;99.90;;;;;;5054659;28;20226;-81
2022/04/25 01:56:56;;;;;;;15.00;9.37;;;9.00;99.90;;;;;;5054874;28;20206;-80
2022/04/25 01:59:24;;;;;;;12.33;9.30;;;9.00;99.90;;;;;;5045610;28;20255;-81
2022/04/25 02:01:51;;;;;;;15.53;9.20;;;9.10;99.90;;;;;;5034438;28;20234;-80
2022/04/25 02:04:18;;;;;;;12.90;9.03;;;9.10;99.90;;;;;;5033012;28;20203;-80
2022/04/25 02:06:46;;;;;;;16.47;9.43;;;8.90;99.90;;;;;;5033881;28;20215;-80
2022/04/25 02:09:13;;;;;;;13.63;9.40;;;9.00;99.90;;;;;;5034116;28;20203;-80
2022/04/25 02:11:40;;;;;;;15.40;10.60;;;8.90;99.90;;;;;;5034947;28;20214;-81
2022/04/25 02:14:08;;;;;;;15.97;10.10;;;8.90;99.90;;;;;;5033919;28;20250;-81
2022/04/25 02:16:34;;;;;;;16.03;10.17;;;9.00;99.90;;;;;;5034484;28;20583;-82
2022/04/25 02:19:01;;;;;;;12.57;9.80;;;8.90;99.90;;;;;;5034406;28;20199;-82
2022/04/25 02:21:28;;;;;;;15.50;10.53;;;8.90;99.90;;;;;;5034090;28;20211;-80
2022/04/25 02:23:55;;;;;;;14.53;9.93;;;9.00;99.90;;;;;;5034381;28;20575;-78
2022/04/25 02:26:22;;;;;;;13.40;10.43;;;9.00;99.90;;;;;;5034487;28;20264;-78
2022/04/25 02:28:49;;;;;;;12.17;10.67;;;8.90;99.90;;;;;;5033705;28;20207;-80
2022/04/25 02:31:17;;;;;;;15.77;10.83;;;8.90;99.90;;;;;;5034284;28;20234;-78
2022/04/25 02:33:44;;;;;;;15.17;10.87;;;8.90;99.90;;;;;;5034214;28;20250;-82
2022/04/25 02:36:12;;;;;;;15.50;11.57;;;8.80;99.90;;;;;;5034376;28;20222;-79
2022/04/25 02:38:40;;;;;;;19.47;11.33;;;8.80;99.90;;;;;;5034740;28;20203;-79
2022/04/25 02:41:08;;;;;;;17.27;11.33;;;8.80;99.90;;;;;;5034061;28;20210;-81
2022/04/25 02:43:37;;;;;;;20.63;11.70;;;8.80;99.90;;;;;;5034133;28;20218;-81
2022/04/25 02:46:05;;;;;;;15.90;11.67;;;8.80;99.90;;;;;;5033800;28;20218;-82
2022/04/25 02:48:34;;;;;;;18.47;12.50;;;8.80;99.90;;;;;;5033941;28;20202;-81
2022/04/25 02:51:02;;;;;;;12.93;11.53;;;8.70;99.90;;;;;;5034072;28;20203;-80
2022/04/25 02:53:29;;;;;;;20.13;12.37;;;8.80;99.90;;;;;;5033534;28;20728;-77
2022/04/25 02:55:56;;;;;;;14.60;11.80;;;8.70;99.90;;;;;;5033158;28;20210;-82
2022/04/25 02:58:24;;;;;;;17.57;11.90;;;8.70;99.90;;;;;;5033752;28;20207;-81
2022/04/25 03:00:52;;;;;;;15.23;11.77;;;8.80;99.90;;;;;;5033484;28;20231;-81
2022/04/25 03:03:21;;;;;;;16.73;13.07;;;8.80;99.90;;;;;;5033922;28;20207;-84
2022/04/25 03:05:50;;;;;;;23.67;13.37;;;8.70;99.90;;;;;;5033426;28;20218;-82
2022/04/25 03:08:18;;;;;;;17.00;13.17;;;8.70;99.90;;;;;;5033652;28;20199;-81
2022/04/25 03:10:46;;;;;;;22.73;14.43;;;8.60;99.90;;;;;;5033170;28;20218;-77
2022/04/25 03:13:14;;;;;;;18.53;13.40;;;8.60;99.90;;;;;;5048566;28;20210;-81
2022/04/25 03:15:41;;;;;;;18.97;13.93;;;8.60;99.90;;;;;;5033419;28;20341;-83
2022/04/25 03:18:08;;;;;;;19.57;13.00;;;8.60;99.90;;;;;;5033541;28;20556;-81
2022/04/25 03:20:35;;;;;;;17.00;13.20;;;8.50;99.90;;;;;;5033286;28;20290;-80
2022/04/25 03:23:05;;;;;;;17.60;13.53;;;8.50;99.90;;;;;;5033278;28;20199;-82
2022/04/25 03:25:32;;;;;;;18.27;14.17;;;8.40;99.90;;;;;;5033087;28;20264;-81
2022/04/25 03:27:59;;;;;;;19.60;14.20;;;8.30;99.90;;;;;;5033253;28;20203;-81
2022/04/25 03:30:26;;;;;;;18.27;14.10;;;8.40;99.90;;;;;;5033276;28;20209;-81
2022/04/25 03:32:53;;;;;;;18.67;14.20;;;8.30;99.90;;;;;;5033009;28;20207;-83
2022/04/25 03:35:22;;;;;;;21.73;15.13;;;8.30;99.90;;;;;;5033265;28;20235;-83
2022/04/25 03:37:50;;;;;;;19.20;14.90;;;8.20;99.90;;;;;;5032950;28;20427;-81
2022/04/25 03:40:19;;;;;;;20.23;15.03;;;8.20;99.90;;;;;;5032807;28;20207;-79
2022/04/25 03:42:46;;;;;;;16.63;14.03;;;8.20;99.90;;;;;;5032532;28;20206;-81
2022/04/25 03:45:16;;;;;;;19.93;14.43;;;8.30;99.90;;;;;;5033238;28;20216;-77
2022/04/25 03:47:43;;;;;;;22.87;15.03;;;8.30;99.90;;;;;;5033038;28;20574;-80
2022/04/25 03:50:11;;;;;;;22.67;15.43;;;8.10;99.90;;;;;;5032721;28;20203;-82
2022/04/25 03:52:40;;;;;;;20.77;17.83;;;8.10;99.90;;;;;;5032244;28;20420;-79
2022/04/25 03:57:54;;;;;;;20.53;15.07;;;8.20;99.90;;;;;;5032914;28;20577;-83
2022/04/25 04:00:21;;;;;;;18.63;15.07;;;8.10;99.90;;;;;;5037779;28;20244;-81
2022/04/25 04:02:48;;;;;;;23.50;16.90;;;8.10;99.90;;;;;;5039804;28;20210;-77
2022/04/25 04:05:16;;;;;;;18.30;15.40;;;8.10;99.90;;;;;;5039227;28;20294;-82
2022/04/25 04:07:43;;;;;;;20.40;16.77;;;8.10;99.90;;;;;;5038889;28;20218;-78
2022/04/25 04:10:10;;;;;;;22.07;15.50;;;8.20;99.90;;;;;;5039208;28;20203;-77
2022/04/25 04:12:37;;;;;;;20.30;15.60;;;8.10;99.90;;;;;;5039473;28;20194;-77
2022/04/25 04:15:07;;;;;;;23.03;16.20;;;8.00;99.90;;;;;;5039214;28;20314;-78
2022/04/25 04:17:34;;;;;;;18.47;16.37;;;8.00;99.90;;;;;;5039129;28;20341;-76
2022/04/25 04:20:02;;;;;;;21.40;16.63;;;7.90;99.90;;;;;;5039248;28;20206;-78
2022/04/25 04:22:31;;;;;;;26.80;16.43;;;8.00;99.90;;;;;;5039173;28;20231;-79
2022/04/25 04:25:00;;;;;;;21.63;16.27;;;8.00;99.90;;;;;;5039140;28;20199;-77
2022/04/25 04:27:31;;;;;;;20.03;16.13;;;8.00;99.90;;;;;;5043653;28;20207;-84
2022/04/25 04:29:58;;;;;;;19.20;16.53;;;8.00;99.90;;;;;;5046056;28;20207;-81
2022/04/25 04:32:29;;;;;;;24.60;16.97;;;8.00;99.90;;;;;;5043338;28;20199;-86
2022/04/25 04:34:56;;;;;;;23.60;19.20;;;7.90;99.90;;;;;;5049182;28;20517;-79
2022/04/25 04:37:23;;;;;;;19.70;16.83;;;8.00;99.90;;;;;;5043268;28;20207;-87
2022/04/25 04:39:50;;;;;;;22.63;15.93;;;7.90;99.90;;;;;;5038876;28;20576;-88
2022/04/25 04:42:16;;;;;;;18.40;16.37;;;8.10;99.90;;;;;;5039166;28;20655;-87
2022/04/25 04:44:43;;;;;;;20.30;15.73;;;8.20;99.90;;;;;;5038972;28;20651;-87
2022/04/25 04:47:10;;;;;;;19.63;15.53;;;8.10;99.90;;;;;;5039200;28;20639;-88
2022/04/25 04:49:38;;;;;;;21.20;16.37;;;8.10;99.90;;;;;;5039050;28;20562;-87
2022/04/25 04:52:06;;;;;;;22.03;15.13;;;8.10;99.90;;;;;;5039475;28;20203;-87
2022/04/25 04:54:32;;;;;;;20.60;17.25;;;8.10;99.90;;;;;;5039634;28;20608;-87
2022/04/25 04:56:59;;;;;;;19.50;15.10;;;8.10;99.90;;;;;;5039541;28;20210;-87
2022/04/25 04:59:26;;;;;;;17.43;14.20;;;8.20;99.90;;;;;;5038820;28;20223;-87
2022/04/25 05:01:53;;;;;;;22.47;15.93;;;8.30;99.90;;;;;;5040954;28;20337;-88
2022/04/25 05:04:19;;;;;;;21.00;15.77;;;8.30;99.90;;;;;;5037589;28;20611;-87
2022/04/25 05:06:47;;;;;;;20.10;15.37;;;8.30;99.90;;;;;;5037240;28;20697;-88
2022/04/25 05:09:14;;;;;;;18.03;15.17;;;8.30;99.90;;;;;;5038795;28;20211;-88
2022/04/25 05:11:43;;;;;;;20.70;14.53;;;8.40;99.90;;;;;;5035343;28;20207;-88
2022/04/25 05:14:11;;;;;;;22.37;14.43;;;8.30;99.90;;;;;;5035240;28;20252;-88
2022/04/25 05:16:40;;;;;;;21.93;14.60;;;8.20;99.90;;;;;;5035702;28;20207;-88
2022/04/25 05:19:07;;;;;;;21.50;14.97;;;8.30;99.90;;;;;;5036009;28;20209;-88
2022/04/25 05:21:34;;;;;;;20.33;16.00;;;8.30;99.90;;;;;;5035401;28;20207;-88
2022/04/25 05:24:02;;;;;;;23.13;15.17;;;8.30;99.90;;;;;;5035758;28;20199;-87
2022/04/25 05:26:29;;;;;;;20.10;16.00;;;8.40;99.90;;;;;;5036294;28;20221;-88
2022/04/25 05:28:57;;;;;;;23.03;15.73;;;8.30;99.90;;;;;;5036521;28;20210;-88
2022/04/25 05:31:24;;;;;;;17.20;14.80;;;8.30;99.90;;;;;;5035706;28;20213;-88
2022/04/25 05:33:51;;;;;;;20.27;15.83;;;8.30;99.90;;;;;;5035621;28;20214;-87
2022/04/25 05:36:18;;;;;;;18.50;15.00;;;8.20;99.90;;;;;;5035383;28;20676;-88
2022/04/25 05:38:44;;;;;;;18.87;14.67;;;8.30;99.90;;;;;;5035581;28;20206;-88
2022/04/25 05:41:13;;;;;;;19.70;15.37;;;8.40;99.90;;;;;;5035047;28;20211;-88
2022/04/25 05:43:40;;;;;;;19.33;14.70;;;8.40;99.90;;;;;;5035318;28;20203;-88
2022/04/25 05:46:07;;;;;;;23.40;14.30;;;8.50;99.90;;;;;;5035206;28;20211;-87
2022/04/25 05:54:05;;;;;;;17.23;14.10;;;8.40;99.90;;;;;;5034937;28;20211;-88
2022/04/25 05:56:33;;;;;;;15.40;13.80;;;8.40;99.90;;;;;;5035134;28;20231;-88
2022/04/25 05:59:00;;;;;;;23.43;13.93;;;8.40;99.90;;;;;;5035011;28;20214;-89
2022/04/25 06:01:27;;;;;;;18.57;13.63;;;8.60;99.90;;;;;;5034844;28;20211;-88
2022/04/25 06:03:54;;;;;;;18.17;13.93;;;8.60;99.90;;;;;;5034919;28;20203;-89
2022/04/25 06:06:23;;;;;;;16.70;14.17;;;8.60;99.90;;;;;;5034380;28;20223;-88
2022/04/25 06:08:51;;;;;;;20.00;14.73;;;8.70;99.90;;;;;;5034875;28;20253;-88
2022/04/25 06:11:18;;;;;;;16.67;13.40;;;8.80;99.90;;;;;;5034768;28;20309;-88
2022/04/25 06:13:46;;;;;;;22.67;13.13;;;8.90;99.90;;;;;;5034852;28;20203;-87
2022/04/25 06:16:13;;;;;;;15.77;13.27;;;9.00;99.90;;;;;;5034578;28;20237;-88
2022/04/25 06:18:40;;;;;;;21.27;13.47;;;8.90;99.90;;;;;;5034507;28;20553;-88
2022/04/25 06:21:07;;;;;;;19.80;13.23;;;8.80;99.90;;;;;;5034431;28;20259;-84
2022/04/25 06:23:34;;;;;;;13.60;11.77;;;9.00;99.90;;;;;;5034119;28;20206;-88
2022/04/25 06:26:01;;;;;;;18.80;11.43;;;9.10;99.90;;;;;;5034445;28;20262;-87
2022/04/25 06:28:29;;;;;;;15.03;11.80;;;9.30;99.90;;;;;;5034172;28;20571;-87
2022/04/25 06:30:58;;;;;;;15.23;11.60;;;9.40;99.90;;;;;;5034372;28;20563;-87
2022/04/25 06:33:25;;;;;;;15.37;11.57;;;9.40;99.90;;;;;;5033891;28;20549;-87
2022/04/25 06:35:52;;;;;;;15.07;10.70;;;9.40;99.90;;;;;;5033964;28;20234;-88
2022/04/25 06:38:19;;;;;;;14.63;10.40;;;9.50;99.90;;;;;;5034001;28;20225;-84
2022/04/25 06:40:46;;;;;;;15.85;12.70;;;9.60;99.90;;;;;;5034751;28;20434;-83
2022/04/25 06:43:14;;;;;;;16.53;11.53;;;9.70;99.90;;;;;;5034789;28;20290;-84
2022/04/25 06:45:41;;;;;;;17.90;10.97;;;9.80;99.90;;;;;;5034743;28;20211;-83
2022/04/25 06:48:09;;;;;;;16.63;11.03;;;9.80;99.90;;;;;;5034241;28;20205;-85
2022/04/25 06:50:36;;;;;;;19.30;11.40;;;9.80;99.90;;;;;;5034153;28;20229;-82
2022/04/25 06:53:03;;;;;;;14.07;10.87;;;9.90;99.90;;;;;;5034260;28;20233;-85
2022/04/25 06:55:30;;;;;;;11.53;10.27;;;10.10;99.90;;;;;;5035241;28;20223;-87
2022/04/25 06:57:59;;;;;;;13.43;10.40;;;10.20;99.90;;;;;;5034988;28;20207;-85
2022/04/25 07:00:27;;;;;;;19.97;10.60;;;10.30;99.90;;;;;;5035323;28;20289;-85
2022/04/25 07:02:54;;;;;;;14.27;9.43;;;10.50;99.90;;;;;;5033715;28;20203;-83
2022/04/25 07:05:22;;;;;;;15.73;9.70;;;10.70;99.90;;;;;;5034560;28;20211;-85
2022/04/25 07:07:49;;;;;;;15.10;9.63;;;10.80;99.90;;;;;;5033605;28;20696;-84
2022/04/25 07:10:16;;;;;;;11.80;9.70;;;10.70;99.90;;;;;;5033708;28;20207;-83
2022/04/25 07:12:43;;;;;;;15.13;10.20;;;10.90;99.90;;;;;;5034391;28;20242;-81
2022/04/25 07:15:11;;;;;;;12.07;9.30;;;11.00;99.90;;;;;;5033510;28;20234;-83
2022/04/25 07:17:38;;;;;;;13.97;9.90;;;11.30;99.90;;;;;;5034350;28;20203;-82
2022/04/25 07:20:06;;;;;;;12.97;9.23;;;11.40;99.90;;;;;;5053214;28;20198;-85
2022/04/25 07:30:47;;;;;;;14.53;9.30;;;11.20;99.90;;;;;;5054921;28;20565;-85
2022/04/25 07:33:14;;;;;;;13.93;9.07;;;11.30;99.90;;;;;;5053552;28;20194;-82
2022/04/25 07:35:40;;;;;;;14.90;9.00;;;11.50;99.90;;;;;;5052606;28;20214;-83
2022/04/25 07:38:09;;;;;;;12.90;8.87;;;11.70;99.90;;;;;;5053132;28;20210;-84
2022/04/25 07:40:36;;;;;;;15.60;8.83;;;11.80;99.90;;;;;;5053544;28;20302;-82
2022/04/25 07:43:03;;;;;;;17.87;8.97;;;11.90;99.90;;;;;;5054570;28;20289;-82
2022/04/25 07:45:32;;;;;;;12.18;9.50;;;12.00;99.90;;;;;;5053302;28;20464;-83
2022/04/25 07:47:59;;;;;;;11.13;8.67;;;11.90;99.90;;;;;;5052782;28;20251;-84
2022/04/25 07:50:26;;;;;;;12.37;8.57;;;12.00;99.90;;;;;;5053469;28;20559;-82
2022/04/25 07:52:53;;;;;;;11.03;8.30;;;11.90;99.90;;;;;;5052716;28;20210;-82
2022/04/25 07:55:21;;;;;;;13.50;8.20;;;12.00;99.90;;;;;;5053036;28;20226;-82
2022/04/25 07:57:47;;;;;;;12.17;8.70;;;11.70;99.90;;;;;;5052997;28;20207;-83
2022/04/25 08:00:15;;;;;;;11.47;8.70;;;11.80;99.90;;;;;;5052432;28;20218;-82
2022/04/25 08:02:42;;;;;;;12.63;8.50;;;11.80;99.90;;;;;;5052725;28;20310;-82
2022/04/25 08:05:09;;;;;;;10.33;9.20;;;11.90;99.90;;;;;;5052726;28;20203;-84
2022/04/25 08:07:36;;;;;;;11.93;8.50;;;11.90;99.90;;;;;;5052675;28;20206;-83
2022/04/25 08:10:03;;;;;;;12.20;8.60;;;11.80;99.90;;;;;;5052954;28;20666;-85
2022/04/25 08:18:04;;;;;;;12.83;9.63;;;11.80;99.90;;;;;;5050939;28;20205;-83
2022/04/25 08:20:35;;;;;;;12.77;8.83;;;11.90;99.90;;;;;;5049869;28;20199;-82
2022/04/25 08:23:03;;;;;;;12.60;9.67;;;11.90;99.90;;;;;;5052824;28;20324;-84
2022/04/25 08:25:31;;;;;;;12.87;9.57;;;11.80;99.90;;;;;;5050090;28;20202;-84
2022/04/25 08:27:59;;;;;;;15.17;11.63;;;11.90;99.90;;;;;;5052468;28;20194;-82
2022/04/25 08:30:26;;;;;;;12.50;9.15;;;12.00;99.90;;;;;;5051714;28;20413;-84
2022/04/25 08:32:55;;;;;;;11.83;9.87;;;12.30;99.90;;;;;;5052214;28;20209;-84
2022/04/25 08:35:22;;;;;;;15.10;10.00;;;12.30;99.90;;;;;;5052740;28;20208;-93
2022/04/25 08:37:49;;;;;;;13.27;9.20;;;12.60;99.90;;;;;;5052580;28;20205;-82
2022/04/25 08:40:16;;;;;;;13.63;10.13;;;12.60;99.90;;;;;;5051365;28;20217;-82
2022/04/25 08:42:44;;;;;;;11.87;8.40;;;12.80;99.90;;;;;;5052033;28;20688;-83
2022/04/25 08:45:13;;;;;;;12.97;9.13;;;12.90;99.90;;;;;;5052088;28;20649;-82
2022/04/25 08:47:47;;;;;;;9.63;8.63;;;12.80;99.90;;;;;;5055737;28;20215;-82
2022/04/25 08:50:17;;;;;;;15.13;9.83;;;12.50;99.90;;;;;;5055645;28;20662;-81
2022/04/25 08:52:45;;;;;;;11.30;8.63;;;12.70;99.90;;;;;;5055885;28;20205;-82
2022/04/25 08:55:13;;;;;;;11.93;8.77;;;12.90;99.90;;;;;;5055513;28;20198;-83
2022/04/25 08:57:41;;;;;;;10.93;9.00;;;12.90;99.90;;;;;;5055697;28;20341;-83
2022/04/25 09:00:10;;;;;;;10.50;9.10;;;12.70;99.90;;;;;;5055214;28;20227;-83
2022/04/25 09:02:39;;;;;;;15.97;10.40;;;12.70;99.90;;;;;;5055939;28;20203;-84
2022/04/25 09:05:07;;;;;;;15.80;10.90;;;12.60;99.90;;;;;;5055579;28;20255;-83
2022/04/25 09:07:37;;;;;;;14.03;10.70;;;12.90;99.90;;;;;;5055506;28;20212;-80
2022/04/25 09:10:08;;;;;;;15.57;10.83;;;13.30;99.90;;;;;;5055469;28;20661;-81
2022/04/25 09:12:35;;;;;;;16.10;10.73;;;13.60;99.90;;;;;;5055346;28;20211;-80
2022/04/25 09:15:02;;;;;;;13.87;10.33;;;13.40;99.90;;;;;;5055676;28;20212;-80
2022/04/25 09:17:29;;;;;;;16.80;11.60;;;13.30;99.90;;;;;;5055488;28;20211;-82
2022/04/25 09:19:57;;;;;;;15.50;11.13;;;13.40;99.90;;;;;;5055533;28;20204;-82
2022/04/25 09:22:32;;;;;;;13.20;10.97;;;13.20;99.90;;;;;;5055326;28;20208;-83
2022/04/25 09:25:09;;;;;;;15.37;11.17;;;13.40;99.90;;;;;;5055322;28;20204;-83
2022/04/25 09:27:36;;;;;;;12.37;9.87;;;13.70;99.90;;;;;;5054993;28;20209;-82
2022/04/25 09:30:14;;;;;;;13.83;10.33;;;13.40;99.90;;;;;;5055110;28;20640;-81
2022/04/25 09:32:41;;;;;;;12.07;9.27;;;13.20;99.90;;;;;;5055006;28;20226;-81
2022/04/25 09:35:29;;;;;;;14.10;9.50;;;13.10;99.90;;;;;;5055019;28;20202;-81
2022/04/25 09:37:58;;;;;;;12.77;9.23;;;13.00;99.90;;;;;;5054643;28;20200;-80
2022/04/25 09:40:28;;;;;;;14.55;11.57;;;13.10;99.90;;;;;;5053924;28;20437;-81
2022/04/25 09:43:06;;;;;;;17.33;11.33;;;13.50;99.90;;;;;;5053822;28;20415;-82
2022/04/25 09:45:35;;;;;;;16.90;10.57;;;13.60;99.90;;;;;;5053918;28;20204;-83
2022/04/25 09:48:02;;;;;;;13.53;10.37;;;13.30;99.90;;;;;;5055436;28;20204;-83
2022/04/25 09:50:30;;;;;;;12.30;11.07;;;13.30;99.90;;;;;;5054848;28;20669;-83
2022/04/25 09:52:59;;;;;;;13.73;10.57;;;13.30;99.90;;;;;;5054947;28;20207;-84
2022/04/25 09:55:28;;;;;;;14.53;12.10;;;13.30;99.90;;;;;;5041904;28;20224;-82
2022/04/25 09:57:55;;;;;;;17.77;12.30;;;13.30;99.90;;;;;;5051113;28;20231;-82
2022/04/25 10:00:33;;;;;;;14.20;12.77;;;13.20;99.90;;;;;;5054741;28;20587;-80
2022/04/25 10:03:00;;;;;;;16.17;14.43;;;13.60;99.90;;;;;;5053053;28;20825;-81
2022/04/25 10:05:40;;;;;;;11.70;10.50;;;13.90;99.90;;;;;;5054102;28;20210;-82
2022/04/25 10:08:08;;;;;;;10.30;8.83;;;14.10;99.90;;;;;;5054460;28;20217;-82
2022/04/25 10:10:36;;;;;;;12.53;9.47;;;14.20;99.90;;;;;;5054106;28;20670;-82
2022/04/25 10:13:03;;;;;;;9.97;8.97;;;14.40;99.90;;;;;;5054262;28;20215;-84
2022/04/25 10:15:30;;;;;;;10.93;9.73;;;14.10;99.90;;;;;;5053943;28;20202;-85
2022/04/25 10:17:57;;;;;;;11.13;8.87;;;13.80;99.90;;;;;;5055159;28;20221;-88
2022/04/25 10:20:24;;;;;;;10.37;8.33;;;13.70;99.90;;;;;;5054266;28;20259;-81
2022/04/25 10:22:53;;;;;;;11.17;8.60;;;13.60;99.90;;;;;;5054113;28;20212;-81
2022/04/25 10:25:20;;;;;;;14.13;8.35;;;13.70;99.90;;;;;;5054018;28;20088;-81
2022/04/25 10:27:48;;;;;;;15.20;9.77;;;13.50;99.90;;;;;;5054654;28;20216;-82
2022/04/25 10:30:17;;;;;;;11.63;10.40;;;13.00;99.90;;;;;;5053972;28;20215;-83
2022/04/25 10:32:44;;;;;;;28.83;13.40;;;12.30;99.90;;;;;;5053324;28;20570;-82
2022/04/25 10:35:18;;;;;;;26.40;16.33;;;12.20;99.90;;;;;;5053524;28;20609;-81
2022/04/25 10:37:45;;;;;;;21.17;15.83;;;11.60;99.90;;;;;;5054117;28;20230;-82
2022/04/25 10:44:10;;;;;;;24.40;17.10;;;11.00;99.90;;;;;;5053319;28;20285;-81
2022/04/25 10:46:13;;;;;;;21.20;18.60;;;10.60;99.90;;;;;;5042820;28;20198;-81
2022/04/25 10:49:05;;;;;;;23.23;18.50;;;10.60;99.90;;;;;;5053763;28;20219;-81
2022/04/25 10:51:38;;;;;;;21.53;18.80;;;10.50;99.90;;;;;;5051356;28;20613;-80
2022/04/25 10:54:05;;;;;;;24.77;19.67;;;10.50;99.90;;;;;;5053472;28;20623;-83
2022/04/25 10:56:35;;;;;;;22.33;20.03;;;10.40;99.90;;;;;;5049100;28;20238;-82
2022/04/25 10:59:24;;;;;;;24.30;21.80;;;10.40;99.90;;;;;;5042523;28;20218;-84
2022/04/25 11:01:51;;;;;;;23.70;21.20;;;10.50;99.90;;;;;;5033763;28;20291;-84
2022/04/25 11:04:19;;;;;;;22.70;20.23;;;10.50;99.90;;;;;;5033836;28;20218;-82
2022/04/25 11:06:46;;;;;;;22.77;20.23;;;10.60;99.90;;;;;;5033331;28;20588;-82
2022/04/25 11:09:37;;;;;;;23.23;20.07;;;10.70;99.90;;;;;;5033226;28;20211;-78
2022/04/25 11:12:06;;;;;;;24.67;20.80;;;10.90;99.90;;;;;;5033394;28;20207;-83
2022/04/25 11:14:33;;;;;;;21.23;18.97;;;11.20;99.90;;;;;;5032985;28;20206;-87
2022/04/25 11:17:08;;;;;;;26.97;19.93;;;11.40;99.90;;;;;;5031513;28;20705;-84
2022/04/25 11:19:47;;;;;;;19.97;17.63;;;11.40;99.90;;;;;;5033849;28;20256;-84
2022/04/25 11:22:50;;;;;;;20.40;18.43;;;11.40;99.90;;;;;;5033376;28;20207;-87
2022/04/25 11:25:47;;;;;;;20.37;17.93;;;11.30;99.90;;;;;;5033029;28;20265;-82
2022/04/25 11:28:17;;;;;;;17.67;15.77;;;11.40;99.90;;;;;;4991950;28;20231;-83
2022/04/25 11:30:44;;;;;;;18.63;16.73;;;11.70;99.90;;;;;;5023844;28;20564;-81
2022/04/25 11:33:12;;;;;;;16.47;14.97;;;11.80;99.90;;;;;;5033047;28;20210;-84
2022/04/25 11:35:43;;;;;;;15.93;14.33;;;11.80;99.90;;;;;;5033243;28;20651;-82
2022/04/25 11:38:09;;;;;;;16.00;14.40;;;11.90;99.90;;;;;;5032866;28;20226;-81
2022/04/25 11:40:38;;;;;;;16.47;14.87;;;12.20;99.90;;;;;;5032795;28;20612;-83
2022/04/25 11:43:06;;;;;;;16.90;14.47;;;12.60;99.90;;;;;;5052370;28;20616;-81
2022/04/25 11:45:34;;;;;;;17.80;15.20;;;12.70;99.90;;;;;;5053699;28;20684;-84
2022/04/25 11:48:01;;;;;;;16.27;14.67;;;12.90;99.90;;;;;;5050060;28;20233;-80
2022/04/25 11:50:28;;;;;;;16.40;14.50;;;12.90;99.90;;;;;;5047751;28;20622;-80
2022/04/25 11:52:56;;;;;;;18.97;14.67;;;12.90;99.90;;;;;;5045804;28;20243;-79
2022/04/25 11:55:33;;;;;;;15.43;13.83;;;13.10;99.90;;;;;;5052931;28;20222;-78
2022/04/25 11:58:00;;;;;;;18.53;14.60;;;13.20;99.90;;;;;;5052235;28;20702;-79
2022/04/25 12:00:27;;;;;;;14.77;13.33;;;13.30;99.90;;;;;;5053011;28;20254;-80
2022/04/25 12:02:56;;;;;;;14.87;13.43;;;13.70;99.90;;;;;;5053299;28;20204;-79
2022/04/25 12:05:26;;;;;;;15.07;13.67;;;13.70;99.90;;;;;;5053043;28;20213;-78
2022/04/25 12:16:08;;;;;;;10.30;9.30;;;12.90;99.90;;;;;;5052557;28;20239;-79
2022/04/25 12:18:48;;;;;;;12.73;9.40;;;12.50;99.90;;;;;;5052431;28;20600;-79
2022/04/25 12:21:16;;;;;;;12.10;11.00;;;12.10;99.90;;;;;;5054481;28;20205;-78
2022/04/25 12:23:48;;;;;;;13.93;12.17;;;11.80;99.90;;;;;;5056368;28;20198;-78
2022/04/25 12:26:20;;;;;;;17.93;14.97;;;11.80;99.90;;;;;;5056935;28;20560;-78
2022/04/25 12:28:52;;;;;;;20.03;15.93;;;11.80;99.90;;;;;;5056308;28;20213;-78
2022/04/25 12:31:20;;;;;;;19.03;16.40;;;11.70;99.90;;;;;;5056628;28;20202;-78
2022/04/25 12:33:50;;;;;;;19.37;16.33;;;11.60;99.90;;;;;;5056248;28;20211;-79
2022/04/25 12:36:20;;;;;;;20.83;18.73;;;11.70;99.90;;;;;;5055109;28;20949;-79
2022/04/25 12:38:56;;;;;;;18.07;16.43;;;11.80;99.90;;;;;;5056264;28;20701;-78
2022/04/25 12:41:24;;;;;;;17.70;15.90;;;11.80;99.90;;;;;;5056219;28;20232;-79
2022/04/25 12:43:53;;;;;;;16.77;15.17;;;11.80;99.90;;;;;;5055825;28;20199;-79
2022/04/25 12:46:35;;;;;;;16.73;15.13;;;12.00;99.90;;;;;;5056320;28;20202;-79
2022/04/25 12:49:05;;;;;;;14.97;13.47;;;12.00;99.90;;;;;;5055841;28;20209;-79
2022/04/25 12:51:35;;;;;;;13.53;12.20;;;11.90;99.90;;;;;;5055600;28;20245;-79
2022/04/25 12:54:03;;;;;;;13.03;11.83;;;12.10;99.90;;;;;;5055617;28;20199;-81
2022/04/25 12:56:32;;;;;;;14.07;12.67;;;12.40;99.90;;;;;;5055933;28;20580;-81
2022/04/25 12:58:59;;;;;;;12.93;11.67;;;12.50;99.90;;;;;;5055888;28;20204;-88
2022/04/25 13:01:32;;;;;;;11.07;10.07;;;12.60;99.90;;;;;;5059529;28;20214;-88
2022/04/25 13:04:13;;;;;;;13.00;10.20;;;13.00;99.90;;;;;;5057855;28;20254;-87
2022/04/25 13:06:40;;;;;;;11.67;10.53;;;13.20;99.90;;;;;;5056174;28;20547;-87
2022/04/25 13:09:07;;;;;;;12.90;10.33;;;13.60;99.90;;;;;;5056551;28;20215;-87
2022/04/25 13:11:35;;;;;;;11.30;10.13;;;13.80;99.90;;;;;;5056465;28;20205;-87
2022/04/25 13:14:03;;;;;;;11.20;10.30;;;13.80;99.90;;;;;;5056456;28;20202;-87
2022/04/25 13:16:30;;;;;;;10.50;9.40;;;13.60;99.90;;;;;;5056502;28;20206;-87
2022/04/25 13:18:57;;;;;;;9.83;8.67;;;13.20;99.90;;;;;;5056558;28;20237;-87
2022/04/25 13:21:27;;;;;;;9.90;9.10;;;13.10;99.90;;;;;;5056581;28;20208;-88